createdAt,value
2023-03-02T00:01:55.057Z,29.99
2023-03-02T00:04:37.015Z,30.22
2023-03-02T00:07:09.905Z,28.78
2023-03-02T00:09:38.351Z,29.87
2023-03-02T00:12:07.939Z,29.91
2023-03-02T00:14:35.879Z,30.17
2023-03-02T00:17:04.735Z,30.28
2023-03-02T00:19:32.723Z,29.08
2023-03-02T00:22:00.592Z,29.01
2023-03-02T00:24:28.533Z,28.24
2023-03-02T00:26:56.725Z,28.99
2023-03-02T00:29:24.813Z,28.35
2023-03-02T00:31:52.810Z,28.86
2023-03-02T00:34:20.825Z,28.97
2023-03-02T00:36:49.554Z,29.15
2023-03-02T00:39:20.219Z,29.80
2023-03-02T00:41:48.837Z,28.98
2023-03-02T00:44:20.273Z,30.22
2023-03-02T00:46:48.241Z,29.38
2023-03-02T00:49:16.167Z,28.51
2023-03-02T00:51:44.049Z,28.67
2023-03-02T00:54:11.992Z,28.53
2023-03-02T00:56:40.050Z,28.64
2023-03-02T00:59:26.706Z,28.28
2023-03-02T01:02:15.796Z,27.83
2023-03-02T01:04:45.038Z,28.36
2023-03-02T01:07:16.719Z,28.44
2023-03-02T01:09:45.585Z,29.83
2023-03-02T01:12:14.037Z,30.67
2023-03-02T01:14:45.167Z,29.80
2023-03-02T01:17:14.211Z,31.48
2023-03-02T01:19:43.075Z,32.70
2023-03-02T01:22:11.281Z,32.03
2023-03-02T01:24:39.200Z,31.61
2023-03-02T01:27:07.093Z,32.14
2023-03-02T01:29:34.932Z,32.08
2023-03-02T01:32:03.075Z,31.86
2023-03-02T01:34:31.027Z,31.91
2023-03-02T01:36:58.941Z,32.83
2023-03-02T01:39:26.833Z,31.55
2023-03-02T01:41:54.765Z,30.51
2023-03-02T01:44:36.660Z,30.37
2023-03-02T01:47:13.861Z,29.33
2023-03-02T01:50:19.101Z,28.05
2023-03-02T01:52:48.643Z,28.46
2023-03-02T01:55:24.788Z,28.11
2023-03-02T01:57:55.610Z,28.00
2023-03-02T02:00:30.514Z,27.71
2023-03-02T02:03:08.817Z,27.91
2023-03-02T02:05:39.573Z,28.29
2023-03-02T02:08:07.751Z,28.32
2023-03-02T02:10:37.440Z,27.00
2023-03-02T02:13:09.688Z,26.61
2023-03-02T02:15:38.956Z,25.99
2023-03-02T02:18:07.395Z,25.31
2023-03-02T02:20:39.235Z,25.50
2023-03-02T02:23:26.145Z,24.59
2023-03-02T02:25:55.499Z,24.55
2023-03-02T02:28:29.608Z,24.91
2023-03-02T02:31:22.919Z,24.08
2023-03-02T02:34:11.277Z,25.04
2023-03-02T02:36:43.761Z,24.93
2023-03-02T02:39:23.275Z,24.34
2023-03-02T02:41:54.890Z,23.81
2023-03-02T02:44:23.185Z,23.98
2023-03-02T02:46:51.075Z,24.16
2023-03-02T02:49:35.149Z,24.29
2023-03-02T02:52:05.392Z,24.89
2023-03-02T02:54:35.005Z,25.00
2023-03-02T02:57:04.294Z,24.38
2023-03-02T02:59:41.709Z,25.36
2023-03-02T03:02:21.426Z,24.28
2023-03-02T03:04:50.258Z,25.92
2023-03-02T03:07:24.318Z,26.34
2023-03-02T03:10:20.789Z,27.01
2023-03-02T03:12:49.426Z,28.36
2023-03-02T03:15:18.063Z,28.01
2023-03-02T03:17:57.195Z,28.73
2023-03-02T03:20:29.226Z,27.82
2023-03-02T03:22:59.697Z,27.51
2023-03-02T03:25:29.067Z,26.62
2023-03-02T03:27:57.426Z,26.17
2023-03-02T03:30:26.020Z,26.23
2023-03-02T03:32:54.290Z,27.38
2023-03-02T03:35:22.210Z,28.78
2023-03-02T03:37:51.728Z,29.24
2023-03-02T03:40:20.474Z,30.76
2023-03-02T03:42:49.221Z,31.70
2023-03-02T03:45:17.565Z,33.27
2023-03-02T03:47:45.738Z,34.27
2023-03-02T03:50:13.592Z,35.89
2023-03-02T03:52:42.070Z,36.23
2023-03-02T03:55:15.676Z,37.33
2023-03-02T03:57:45.728Z,39.24
2023-03-02T04:00:17.274Z,39.60
2023-03-02T04:02:52.100Z,42.47
2023-03-02T04:05:20.949Z,42.46
2023-03-02T04:07:52.607Z,43.41
2023-03-02T04:10:21.796Z,45.00
2023-03-02T04:12:51.956Z,44.80
2023-03-02T04:15:20.037Z,46.58
2023-03-02T04:17:49.519Z,46.07
2023-03-02T04:20:21.329Z,46.81
2023-03-02T04:22:53.863Z,48.83
2023-03-02T04:25:24.396Z,49.01
2023-03-02T04:27:55.620Z,47.64
2023-03-02T04:30:27.198Z,51.96
2023-03-02T04:32:57.575Z,52.93
2023-03-02T04:35:27.645Z,52.31
2023-03-02T04:37:55.627Z,52.23
2023-03-02T04:40:23.512Z,52.22
2023-03-02T04:42:51.359Z,54.12
2023-03-02T04:45:19.632Z,54.94
2023-03-02T04:47:47.498Z,56.41
2023-03-02T04:50:15.942Z,55.39
2023-03-02T04:52:44.157Z,53.66
2023-03-02T04:55:19.850Z,53.07
2023-03-02T04:57:48.072Z,54.12
2023-03-02T05:00:19.275Z,53.80
2023-03-02T05:02:47.709Z,54.79
2023-03-02T05:05:21.986Z,56.51
2023-03-02T05:07:51.065Z,58.00
2023-03-02T05:10:19.420Z,57.62
2023-03-02T05:13:05.903Z,55.84
2023-03-02T05:15:36.870Z,55.00
2023-03-02T05:18:07.050Z,53.20
2023-03-02T05:20:35.339Z,54.32
2023-03-02T05:23:06.526Z,55.20
2023-03-02T05:25:36.470Z,55.13
2023-03-02T05:28:05.128Z,55.17
2023-03-02T05:30:37.445Z,56.08
2023-03-02T05:33:05.369Z,55.78
2023-03-02T05:35:33.241Z,56.59
2023-03-02T05:38:01.277Z,55.91
2023-03-02T05:40:29.390Z,54.26
2023-03-02T05:42:57.267Z,56.18
2023-03-02T05:45:29.941Z,57.18
2023-03-02T05:47:58.061Z,56.80
2023-03-02T05:50:25.945Z,57.45
2023-03-02T05:52:54.596Z,56.58
2023-03-02T05:55:22.581Z,56.20
2023-03-02T05:57:50.479Z,57.28
2023-03-02T06:00:19.124Z,55.51
2023-03-02T06:02:47.614Z,54.63
2023-03-02T06:05:18.260Z,56.26
2023-03-02T06:07:46.637Z,55.95
2023-03-02T06:10:14.672Z,56.83
2023-03-02T06:12:42.879Z,55.86
2023-03-02T06:15:11.346Z,56.19
2023-03-02T06:17:39.227Z,56.87
2023-03-02T06:20:11.321Z,56.52
2023-03-02T06:22:47.765Z,56.29
2023-03-02T06:25:19.194Z,55.79
2023-03-02T06:27:49.870Z,56.85
2023-03-02T06:30:21.377Z,56.36
2023-03-02T06:32:49.304Z,57.45
2023-03-02T06:35:17.302Z,56.90
2023-03-02T06:37:45.272Z,57.77
2023-03-02T06:40:14.269Z,58.12
2023-03-02T06:42:42.979Z,55.65
2023-03-02T06:45:11.544Z,56.45
2023-03-02T06:47:40.590Z,58.16
2023-03-02T06:50:09.801Z,57.10
2023-03-02T06:52:37.734Z,56.07
2023-03-02T06:55:06.211Z,55.68
2023-03-02T06:57:34.317Z,55.68
2023-03-02T07:00:14.846Z,56.76
2023-03-02T07:02:44.286Z,56.30
2023-03-02T07:05:13.334Z,58.14
2023-03-02T07:07:41.326Z,56.61
2023-03-02T07:10:11.988Z,57.35
2023-03-02T07:12:40.826Z,57.89
2023-03-02T07:15:14.176Z,57.98
2023-03-02T07:17:44.034Z,57.93
2023-03-02T07:20:14.544Z,56.08
2023-03-02T07:22:42.663Z,56.29
2023-03-02T07:25:11.664Z,55.85
2023-03-02T07:27:39.928Z,55.26
2023-03-02T07:30:08.739Z,56.55
2023-03-02T07:32:36.632Z,57.03
2023-03-02T07:35:05.128Z,55.27
2023-03-02T07:37:32.978Z,55.28
2023-03-02T07:40:01.156Z,55.54
2023-03-02T07:42:29.062Z,55.35
2023-03-02T07:44:59.349Z,53.98
2023-03-02T07:47:27.239Z,52.29
2023-03-02T07:49:55.090Z,51.27
2023-03-02T07:52:22.963Z,51.16
2023-03-02T07:54:50.914Z,51.46
2023-03-02T07:57:18.790Z,51.75
2023-03-02T07:59:48.803Z,51.54
2023-03-02T08:02:18.154Z,49.20
2023-03-02T08:04:47.443Z,48.20
2023-03-02T08:07:15.323Z,49.06
2023-03-02T08:09:43.242Z,50.81
2023-03-02T08:12:11.357Z,50.39
2023-03-02T08:14:39.394Z,50.68
2023-03-02T08:17:08.472Z,49.92
2023-03-02T08:19:36.285Z,51.45
2023-03-02T08:22:04.301Z,51.03
2023-03-02T08:24:32.257Z,52.98
2023-03-02T08:27:02.109Z,52.15
2023-03-02T08:29:30.335Z,51.22
2023-03-02T08:31:59.083Z,49.95
2023-03-02T08:34:27.465Z,49.80
2023-03-02T08:36:55.474Z,48.03
2023-03-02T08:39:23.615Z,48.45
2023-03-02T08:41:52.743Z,49.03
2023-03-02T08:44:23.882Z,47.60
2023-03-02T08:46:52.286Z,46.40
2023-03-02T08:49:20.377Z,42.66
2023-03-02T08:51:53.494Z,45.19
2023-03-02T08:54:21.980Z,45.71
2023-03-02T08:56:50.329Z,49.08
2023-03-02T08:59:18.530Z,47.47
2023-03-02T09:01:46.459Z,46.12
2023-03-02T09:04:14.618Z,43.34
2023-03-02T09:06:44.687Z,42.71
2023-03-02T09:09:14.481Z,40.34
2023-03-02T09:11:43.503Z,38.28
2023-03-02T09:14:11.850Z,36.67
2023-03-02T09:16:39.951Z,36.76
2023-03-02T09:19:07.835Z,36.43
2023-03-02T09:21:36.033Z,35.11
2023-03-02T09:24:04.238Z,35.82
2023-03-02T09:26:32.118Z,35.65
2023-03-02T09:29:00.716Z,37.46
2023-03-02T09:31:30.731Z,37.93
2023-03-02T09:33:59.262Z,38.08
2023-03-02T09:36:27.112Z,37.99
2023-03-02T09:38:55.289Z,37.00
2023-03-02T09:41:41.930Z,37.05
2023-03-02T09:44:51.572Z,39.28
2023-03-02T09:47:38.902Z,37.88
2023-03-02T09:50:33.724Z,36.23
2023-03-02T09:53:07.573Z,37.48
2023-03-02T09:55:37.405Z,35.99
2023-03-02T09:58:12.768Z,36.30
2023-03-02T10:00:43.920Z,34.54
2023-03-02T10:03:21.134Z,34.48
2023-03-02T10:05:51.553Z,32.76
2023-03-02T10:08:30.165Z,32.54
2023-03-02T10:11:09.380Z,30.11
2023-03-02T10:13:47.562Z,28.87
2023-03-02T10:16:52.378Z,28.17
2023-03-02T10:19:42.252Z,30.64
2023-03-02T10:22:36.086Z,29.31
2023-03-02T10:25:19.216Z,27.34
2023-03-02T10:27:52.353Z,27.89
2023-03-02T10:30:30.896Z,27.09
2023-03-02T10:33:04.316Z,26.88
2023-03-02T10:35:34.524Z,26.02
2023-03-02T10:38:12.961Z,26.11
2023-03-02T10:40:59.802Z,25.90
2023-03-02T10:43:32.061Z,25.13
2023-03-02T10:46:07.473Z,25.36
2023-03-02T10:48:50.194Z,22.90
2023-03-02T11:04:57.499Z,21.85
2023-03-02T11:07:29.052Z,21.38
2023-03-02T11:10:06.242Z,20.54
2023-03-02T11:12:37.125Z,20.19
2023-03-02T11:15:32.872Z,19.26
2023-03-02T11:18:24.961Z,18.93
2023-03-02T11:20:57.828Z,18.95
2023-03-02T11:23:45.489Z,18.30
2023-03-02T11:26:25.946Z,17.45
2023-03-02T11:29:01.140Z,18.92
2023-03-02T11:31:43.686Z,17.90
2023-03-02T11:34:17.925Z,18.41
2023-03-02T11:36:51.040Z,17.08
2023-03-02T11:39:29.702Z,16.74
2023-03-02T11:41:57.627Z,20.69
2023-03-02T11:44:27.425Z,23.38
2023-03-02T11:47:01.301Z,19.49
2023-03-02T11:49:47.122Z,15.56
2023-03-02T11:52:20.590Z,14.77
2023-03-02T11:55:00.488Z,14.28
2023-03-02T11:57:29.918Z,13.51
2023-03-02T11:59:59.525Z,14.04
2023-03-02T12:02:27.964Z,13.25
2023-03-02T12:05:08.796Z,13.37
2023-03-02T12:07:36.713Z,13.46
2023-03-02T12:10:38.005Z,13.11
2023-03-02T12:13:20.227Z,13.38
2023-03-02T12:15:50.832Z,14.32
2023-03-02T12:18:21.838Z,13.48
2023-03-02T12:21:02.844Z,13.33
2023-03-02T12:23:34.369Z,14.39
2023-03-02T12:26:19.421Z,14.06
2023-03-02T12:28:59.438Z,15.12
2023-03-02T12:31:40.590Z,17.34
2023-03-02T12:34:34.188Z,19.40
2023-03-02T12:37:29.936Z,15.87
2023-03-02T12:40:03.735Z,14.83
2023-03-02T12:42:47.967Z,14.55
2023-03-02T12:45:46.593Z,14.40
2023-03-02T12:48:42.771Z,14.05
2023-03-02T12:51:31.295Z,15.31
2023-03-02T12:54:17.763Z,14.73
2023-03-02T12:56:46.550Z,13.74
2023-03-02T12:59:26.217Z,13.70
2023-03-02T13:02:17.599Z,13.78
2023-03-02T13:04:56.675Z,15.07
2023-03-02T13:07:27.988Z,15.06
2023-03-02T13:09:58.963Z,13.50
2023-03-02T13:12:29.296Z,13.21
2023-03-02T13:14:59.078Z,13.45
2023-03-02T13:17:31.200Z,13.46
2023-03-02T13:20:01.617Z,13.44
2023-03-02T13:22:31.307Z,13.00
2023-03-02T13:25:05.567Z,12.38
2023-03-02T13:27:34.545Z,12.22
2023-03-02T13:30:23.897Z,11.63
2023-03-02T13:32:54.303Z,12.25
2023-03-02T13:35:26.628Z,11.62
2023-03-02T13:38:00.798Z,11.29
2023-03-02T13:40:39.063Z,11.41
2023-03-02T13:43:37.605Z,11.46
2023-03-02T13:46:11.801Z,11.50
2023-03-02T13:48:39.690Z,11.15
2023-03-02T13:51:18.943Z,10.84
2023-03-02T13:54:03.990Z,11.31
2023-03-02T13:56:38.406Z,10.85
2023-03-02T13:59:17.822Z,11.21
2023-03-02T14:01:46.408Z,10.81
2023-03-02T14:04:23.430Z,10.82
2023-03-02T14:06:53.073Z,10.77
2023-03-02T14:09:21.653Z,11.32
2023-03-02T14:11:53.761Z,11.82
2023-03-02T14:14:25.216Z,11.82
2023-03-02T14:16:53.057Z,12.46
2023-03-02T14:19:21.308Z,12.35
2023-03-02T14:21:49.213Z,12.57
2023-03-02T14:24:17.074Z,12.58
2023-03-02T14:26:47.873Z,11.89
2023-03-02T14:29:29.428Z,12.15
2023-03-02T14:32:06.677Z,13.25
2023-03-02T14:34:36.998Z,13.89
2023-03-02T14:37:08.116Z,14.26
2023-03-02T14:39:41.743Z,14.10
2023-03-02T14:42:15.386Z,14.54
2023-03-02T14:44:44.634Z,14.37
2023-03-02T14:47:13.364Z,14.78
2023-03-02T14:49:41.271Z,15.11
2023-03-02T14:52:16.337Z,14.15
2023-03-02T14:54:51.223Z,15.38
2023-03-02T14:57:27.765Z,15.47
2023-03-02T14:59:56.779Z,15.20
2023-03-02T15:02:26.438Z,15.38
2023-03-02T15:04:57.491Z,15.80
2023-03-02T15:07:27.781Z,15.87
2023-03-02T15:09:57.344Z,16.04
2023-03-02T15:12:25.263Z,15.66
2023-03-02T15:14:53.119Z,16.34
2023-03-02T15:17:21.048Z,17.01
2023-03-02T15:19:49.217Z,16.84
2023-03-02T15:22:17.135Z,16.40
2023-03-02T15:24:44.958Z,16.58
2023-03-02T15:27:13.127Z,17.04
2023-03-02T15:29:45.894Z,16.88
2023-03-02T15:32:14.628Z,17.14
2023-03-02T15:34:42.705Z,17.67
2023-03-02T15:37:11.650Z,18.72
2023-03-02T15:39:40.445Z,18.29
2023-03-02T15:42:08.511Z,18.98
2023-03-02T15:44:36.365Z,18.69
2023-03-02T15:47:04.444Z,19.17
2023-03-02T15:49:32.920Z,19.03
2023-03-02T15:52:00.934Z,19.19
2023-03-02T15:54:30.480Z,19.83
2023-03-02T15:56:58.603Z,22.41
2023-03-02T15:59:29.793Z,20.55
2023-03-02T16:02:02.357Z,20.92
2023-03-02T16:04:32.296Z,21.94
2023-03-02T16:07:00.974Z,20.92
2023-03-02T16:09:30.903Z,21.52
2023-03-02T16:11:58.970Z,21.56
2023-03-02T16:14:26.889Z,19.98
2023-03-02T16:16:54.729Z,22.46
2023-03-02T16:19:22.881Z,20.53
2023-03-02T16:21:50.846Z,21.48
2023-03-02T16:24:18.836Z,21.41
2023-03-02T16:26:46.842Z,22.30
2023-03-02T16:29:14.719Z,21.08
2023-03-02T16:31:46.555Z,20.63
2023-03-02T16:34:14.813Z,21.17
2023-03-02T16:36:43.048Z,20.51
2023-03-02T16:39:12.359Z,20.24
2023-03-02T16:41:43.013Z,20.66
2023-03-02T16:44:14.529Z,20.92
2023-03-02T16:46:43.598Z,21.52
2023-03-02T16:49:12.502Z,20.58
2023-03-02T16:51:44.194Z,21.62
2023-03-02T16:54:15.497Z,23.46
2023-03-02T16:56:47.604Z,20.98
2023-03-02T16:59:17.737Z,20.67
2023-03-02T17:01:46.811Z,20.81
2023-03-02T17:04:14.788Z,20.03
2023-03-02T17:06:59.795Z,19.99
2023-03-02T17:09:29.127Z,20.15
2023-03-02T17:11:57.136Z,20.22
2023-03-02T17:14:25.318Z,20.14
2023-03-02T17:16:54.757Z,20.23
2023-03-02T17:19:25.309Z,19.90
2023-03-02T17:21:55.924Z,20.10
2023-03-02T17:24:24.080Z,20.20
2023-03-02T17:26:51.966Z,20.93
2023-03-02T17:29:20.962Z,21.19
2023-03-02T17:31:49.170Z,20.84
2023-03-02T17:34:17.280Z,22.57
2023-03-02T17:36:45.513Z,22.06
2023-03-02T17:39:13.593Z,24.76
2023-03-02T17:41:42.477Z,23.17
2023-03-02T17:44:10.713Z,22.83
2023-03-02T17:46:39.429Z,21.98
2023-03-02T17:49:08.292Z,22.40
2023-03-02T17:51:37.029Z,22.95
2023-03-02T17:54:05.785Z,23.30
2023-03-02T17:56:34.731Z,22.57
2023-03-02T17:59:05.481Z,20.75
2023-03-02T18:01:34.170Z,20.64
2023-03-02T18:04:05.143Z,20.24
2023-03-02T18:06:34.394Z,21.07
2023-03-02T18:09:03.234Z,20.67
2023-03-02T18:11:32.198Z,20.00
2023-03-02T18:14:00.754Z,20.55
2023-03-02T18:16:29.546Z,21.38
2023-03-02T18:18:58.101Z,21.40
2023-03-02T18:21:26.469Z,22.75
2023-03-02T18:23:55.420Z,22.38
2023-03-02T18:26:23.939Z,23.02
2023-03-02T18:28:51.989Z,24.61
2023-03-02T18:31:20.109Z,24.06
2023-03-02T18:33:48.617Z,24.80
2023-03-02T18:36:16.867Z,24.87
2023-03-02T18:38:44.768Z,22.72
2023-03-02T18:41:14.039Z,22.88
2023-03-02T18:43:42.515Z,22.04
2023-03-02T18:46:20.173Z,20.12
2023-03-02T18:48:50.214Z,20.12
2023-03-02T18:51:19.554Z,21.05
2023-03-02T18:53:48.693Z,21.79
2023-03-02T18:56:17.880Z,22.06
2023-03-02T18:58:45.911Z,22.98
2023-03-02T19:01:13.867Z,23.39
2023-03-02T19:03:41.956Z,24.16
2023-03-02T19:06:09.845Z,27.67
2023-03-02T19:08:38.182Z,23.86
2023-03-02T19:11:06.879Z,22.07
2023-03-02T19:13:35.279Z,21.62
2023-03-02T19:16:04.067Z,21.65
2023-03-02T19:18:32.082Z,21.46
2023-03-02T19:21:01.279Z,23.36
2023-03-02T19:23:29.359Z,24.24
2023-03-02T19:25:57.462Z,20.50
2023-03-02T19:28:25.997Z,18.78
2023-03-02T19:30:54.094Z,17.34
2023-03-02T19:33:24.806Z,17.95
2023-03-02T19:35:52.793Z,18.51
2023-03-02T19:38:20.728Z,18.89
2023-03-02T19:40:48.840Z,21.52
2023-03-02T19:43:16.847Z,23.41
2023-03-02T19:45:44.825Z,23.72
2023-03-02T19:48:13.607Z,22.78
2023-03-02T19:50:41.730Z,20.91
2023-03-02T19:53:09.975Z,19.18
2023-03-02T19:55:38.801Z,18.56
2023-03-02T19:58:08.007Z,18.17
2023-03-02T20:00:36.283Z,17.98
2023-03-02T20:03:06.029Z,18.84
2023-03-02T20:05:35.185Z,17.95
2023-03-02T20:08:03.098Z,18.17
2023-03-02T20:10:41.289Z,17.71
2023-03-02T20:13:09.786Z,17.67
2023-03-02T20:15:41.480Z,17.82
2023-03-02T20:18:16.482Z,18.25
2023-03-02T20:20:45.676Z,17.85
2023-03-02T20:23:15.035Z,18.93
2023-03-02T20:25:43.120Z,19.05
2023-03-02T20:28:13.989Z,18.67
2023-03-02T20:30:49.855Z,18.24
2023-03-02T20:33:21.185Z,19.02
2023-03-02T20:35:50.145Z,19.33
2023-03-02T20:38:23.182Z,20.08
2023-03-02T20:40:51.477Z,20.32
2023-03-02T20:43:19.879Z,19.40
2023-03-02T20:45:47.918Z,19.57
2023-03-02T20:48:15.869Z,20.10
2023-03-02T20:50:43.950Z,19.65
2023-03-02T20:53:11.978Z,21.06
2023-03-02T20:55:39.887Z,20.62
2023-03-02T20:58:09.914Z,22.03
2023-03-02T21:00:38.172Z,29.96
2023-03-02T21:03:08.020Z,23.09
2023-03-02T21:05:40.188Z,19.08
2023-03-02T21:08:14.749Z,20.08
2023-03-02T21:10:44.331Z,36.28
2023-03-02T21:13:13.704Z,24.40
2023-03-02T21:15:41.892Z,20.73
2023-03-02T21:18:10.355Z,19.26
2023-03-02T21:20:39.180Z,19.89
2023-03-02T21:23:07.281Z,19.19
2023-03-02T21:25:35.143Z,18.83
2023-03-02T21:28:03.199Z,19.48
2023-03-02T21:30:34.916Z,19.05
2023-03-02T21:33:03.567Z,18.51
2023-03-02T21:35:31.543Z,19.21
2023-03-02T21:38:04.192Z,20.75
2023-03-02T21:40:35.073Z,20.26
2023-03-02T21:43:05.482Z,20.03
2023-03-02T21:45:35.683Z,19.72
2023-03-02T21:48:05.069Z,18.85
2023-03-02T21:50:36.542Z,18.74
2023-03-02T21:53:05.041Z,18.59
2023-03-02T21:55:33.462Z,19.17
2023-03-02T21:58:01.765Z,19.32
2023-03-02T22:00:36.330Z,19.12
2023-03-02T22:03:05.115Z,20.78
2023-03-02T22:05:33.855Z,21.05
2023-03-02T22:08:01.683Z,21.45
2023-03-02T22:10:41.855Z,22.03
2023-03-02T22:13:33.244Z,23.72
2023-03-02T22:16:17.990Z,23.34
2023-03-02T22:18:47.720Z,23.48
2023-03-02T22:21:30.168Z,22.93
2023-03-02T22:24:10.965Z,23.19
2023-03-02T22:26:47.109Z,23.52
2023-03-02T22:29:41.931Z,23.15
2023-03-02T22:32:30.792Z,22.31
2023-03-02T22:35:01.898Z,22.08
2023-03-02T22:37:33.761Z,22.66
2023-03-02T22:40:27.484Z,21.50
2023-03-02T22:43:11.027Z,22.17
2023-03-02T22:45:41.048Z,22.15
2023-03-02T22:48:20.836Z,22.31
2023-03-02T22:50:50.865Z,21.80
2023-03-02T22:53:33.167Z,22.05
2023-03-02T22:56:21.139Z,22.03
2023-03-02T22:58:51.416Z,22.46
2023-03-02T23:01:22.554Z,21.97
2023-03-02T23:04:03.307Z,22.45
2023-03-02T23:06:33.241Z,22.51
2023-03-02T23:09:04.075Z,23.89
2023-03-02T23:11:37.618Z,24.79
2023-03-02T23:14:30.051Z,24.22
2023-03-02T23:17:11.155Z,23.73
2023-03-02T23:19:39.066Z,24.30
2023-03-02T23:22:07.448Z,24.50
2023-03-02T23:24:35.334Z,24.01
2023-03-02T23:27:03.537Z,23.52
2023-03-02T23:29:32.052Z,24.32
2023-03-02T23:32:00.104Z,25.61
2023-03-02T23:34:31.108Z,24.17
2023-03-02T23:36:59.488Z,23.94
2023-03-02T23:39:27.448Z,24.15
2023-03-02T23:41:55.428Z,23.46
2023-03-02T23:44:23.653Z,23.60
2023-03-02T23:46:52.118Z,23.94
2023-03-02T23:49:19.958Z,23.51
2023-03-02T23:51:48.022Z,23.56
2023-03-02T23:54:15.923Z,24.09
2023-03-02T23:56:43.982Z,23.06
2023-03-02T23:59:11.898Z,23.39
